Terminal Aerodrome Forecast
Issued by NWS Rapid City, SD

Home | Current Version | Previous Version | Text Only | Print | Product List | Glossary On
Versions: 1 2 3 4 5 6 7 8 9 10 11 12 13 14 15 16 17 18 19 20 21 22 23 24 25 26
000
FTUS43 KUNR 152320
TAFRAP
TAF
KRAP 152320Z 1600/1624 35018G28KT P6SM SCT050
     FM160100 31008KT P6SM SKC
     FM161000 VRB06KT P6SM SCT050 BKN100
     FM162000 12007KT P6SM OVC050
      TEMPO 1620/1624 -SHRA=

USA.gov is the U.S. government's official web portal to all federal, state and local government web resources and services.